Time;durP1;ratioP1;P1;durP2;ratioP2;P2;SDS_P1;SDS_P2;PMS_P1;PMS_P2;Temp;Humidity;BMP_temperature;BMP_pressure;BME280_temperature;BME280_humidity;BME280_pressure;Samples;Min_cycle;Max_cycle;Signal;HPM_P1;HPM_P2
2023/05/26 00:00:23;;;;;;;0.40;0.40;;;7.90;99.90;;;;;;5055659;28;20056;-67
2023/05/26 00:02:50;;;;;;;0.40;0.40;;;7.80;99.90;;;;;;5053472;28;20040;-67
2023/05/26 00:05:16;;;;;;;0.43;0.43;;;7.80;99.90;;;;;;5053326;28;20045;-67
2023/05/26 00:07:43;;;;;;;0.55;0.45;;;7.80;99.90;;;;;;5057840;28;20056;-67
2023/05/26 00:10:10;;;;;;;0.40;0.40;;;7.80;99.90;;;;;;5048093;28;20055;-67
2023/05/26 00:12:36;;;;;;;0.30;0.30;;;7.70;99.90;;;;;;5050829;28;20132;-67
2023/05/26 00:15:02;;;;;;;0.40;0.40;;;7.70;99.90;;;;;;5053831;28;20107;-67
2023/05/26 00:17:28;;;;;;;0.30;0.30;;;7.70;99.90;;;;;;5057005;28;20036;-67
2023/05/26 00:19:54;;;;;;;0.50;0.50;;;7.70;99.90;;;;;;5064784;28;20044;-67
2023/05/26 00:22:20;;;;;;;0.40;0.40;;;7.60;99.90;;;;;;5054936;28;20053;-67
2023/05/26 00:24:47;;;;;;;0.43;0.43;;;7.60;99.90;;;;;;5057998;28;20745;-67
2023/05/26 00:27:13;;;;;;;0.52;0.52;;;7.60;99.90;;;;;;5049427;28;20052;-67
2023/05/26 00:29:39;;;;;;;0.75;0.63;;;7.50;99.90;;;;;;5056294;28;20041;-67
2023/05/26 00:32:05;;;;;;;0.40;0.40;;;7.50;99.90;;;;;;5059804;28;20109;-67
2023/05/26 00:34:33;;;;;;;0.55;0.55;;;7.40;99.90;;;;;;5054953;28;20049;-67
2023/05/26 00:37:02;;;;;;;0.40;0.40;;;7.40;99.90;;;;;;5057178;28;20072;-67
2023/05/26 00:39:29;;;;;;;0.35;0.35;;;7.40;99.90;;;;;;5049429;28;20033;-67
2023/05/26 00:41:55;;;;;;;5.85;0.68;;;7.40;99.90;;;;;;5049309;28;20099;-67
2023/05/26 00:44:21;;;;;;;0.30;0.30;;;7.40;99.90;;;;;;5047355;28;20489;-67
2023/05/26 00:46:50;;;;;;;0.47;0.47;;;7.40;99.90;;;;;;5052182;28;20053;-68
2023/05/26 00:49:15;;;;;;;0.47;0.47;;;7.40;99.90;;;;;;5050503;28;20099;-67
2023/05/26 00:51:44;;;;;;;0.30;0.30;;;7.40;99.90;;;;;;5053645;28;20509;-67
2023/05/26 00:54:10;;;;;;;0.50;0.50;;;7.30;99.90;;;;;;5054844;28;20044;-67
2023/05/26 00:56:36;;;;;;;0.70;0.57;;;7.30;99.90;;;;;;5052840;28;20049;-67
2023/05/26 00:59:05;;;;;;;0.77;0.77;;;7.30;99.90;;;;;;5051371;28;20532;-67
2023/05/26 01:01:32;;;;;;;0.70;0.70;;;7.30;99.90;;;;;;5047943;28;20045;-67
2023/05/26 01:03:58;;;;;;;0.47;0.47;;;7.30;99.90;;;;;;5051436;28;20541;-67
2023/05/26 01:06:24;;;;;;;0.73;0.73;;;7.20;99.90;;;;;;5051609;28;20059;-67
2023/05/26 01:08:51;;;;;;;0.50;0.50;;;7.20;99.90;;;;;;5046798;28;20044;-67
2023/05/26 01:11:25;;;;;;;0.55;0.55;;;7.20;99.90;;;;;;5051918;28;20043;-66
2023/05/26 01:13:59;;;;;;;0.68;0.68;;;7.20;99.90;;;;;;5055522;28;20048;-67
2023/05/26 01:16:29;;;;;;;0.60;0.60;;;7.10;99.90;;;;;;5046999;28;20405;-67
2023/05/26 01:19:08;;;;;;;0.50;0.50;;;7.10;99.90;;;;;;5049989;28;20039;-67
2023/05/26 01:21:36;;;;;;;0.75;0.75;;;7.10;99.90;;;;;;5052127;28;20504;-67
2023/05/26 01:24:36;;;;;;;0.75;0.65;;;7.10;99.90;;;;;;5053958;28;20411;-67
2023/05/26 01:27:07;;;;;;;0.30;0.30;;;7.00;99.90;;;;;;5049686;28;20049;-67
2023/05/26 01:29:35;;;;;;;0.35;0.35;;;7.00;99.90;;;;;;5046168;28;20051;-67
2023/05/26 01:32:14;;;;;;;0.75;0.75;;;7.00;99.90;;;;;;5048116;28;20048;-67
2023/05/26 01:34:40;;;;;;;0.63;0.63;;;7.00;99.90;;;;;;5041304;28;20041;-67
2023/05/26 01:37:06;;;;;;;0.30;0.30;;;7.00;99.90;;;;;;5048520;28;20044;-67
2023/05/26 01:39:33;;;;;;;0.40;0.40;;;6.90;99.90;;;;;;5055051;28;20589;-67
2023/05/26 01:42:18;;;;;;;0.60;0.45;;;6.90;99.90;;;;;;5051740;28;20498;-67
2023/05/26 01:45:07;;;;;;;0.60;0.60;;;6.90;99.90;;;;;;5052520;28;20036;-67
2023/05/26 01:47:34;;;;;;;0.52;0.52;;;6.90;99.90;;;;;;5044576;28;20049;-67
2023/05/26 01:50:02;;;;;;;0.57;0.57;;;6.90;99.90;;;;;;5048295;28;20114;-67
2023/05/26 01:52:28;;;;;;;0.75;0.75;;;6.90;99.90;;;;;;5048219;28;20091;-67
2023/05/26 01:55:00;;;;;;;0.40;0.40;;;6.80;99.90;;;;;;5049913;28;20509;-67
2023/05/26 01:57:28;;;;;;;0.40;0.40;;;6.80;99.90;;;;;;5050500;28;20139;-67
2023/05/26 01:59:55;;;;;;;0.50;0.50;;;6.80;99.90;;;;;;5058634;28;20080;-67
2023/05/26 02:02:21;;;;;;;0.68;0.68;;;6.80;99.90;;;;;;5045474;28;20494;-68
2023/05/26 02:04:46;;;;;;;0.50;0.50;;;6.80;99.90;;;;;;5049803;28;20055;-68
2023/05/26 02:07:12;;;;;;;0.40;0.40;;;6.80;99.90;;;;;;5049028;28;20052;-67
2023/05/26 02:09:38;;;;;;;0.28;0.28;;;6.80;99.90;;;;;;5048004;28;20069;-67
2023/05/26 02:12:06;;;;;;;0.30;0.30;;;6.70;99.90;;;;;;5058568;28;20135;-67
2023/05/26 02:14:32;;;;;;;0.40;0.40;;;6.70;99.90;;;;;;5048694;28;20075;-67
2023/05/26 02:16:57;;;;;;;0.40;0.40;;;6.70;99.90;;;;;;5059389;28;20052;-67
2023/05/26 02:19:25;;;;;;;0.57;0.57;;;6.70;99.90;;;;;;5051761;28;20140;-67
2023/05/26 02:21:50;;;;;;;0.50;0.50;;;6.70;99.90;;;;;;5047367;28;20060;-67
2023/05/26 02:24:16;;;;;;;0.60;0.60;;;6.60;99.90;;;;;;5052503;28;20049;-67
2023/05/26 02:26:42;;;;;;;0.50;0.50;;;6.60;99.90;;;;;;5046809;28;20056;-67
2023/05/26 02:29:07;;;;;;;0.65;0.65;;;6.60;99.90;;;;;;5048252;28;20458;-67
2023/05/26 02:31:34;;;;;;;0.32;0.32;;;6.60;99.90;;;;;;5049478;28;20594;-67
2023/05/26 02:34:01;;;;;;;0.40;0.40;;;6.60;99.90;;;;;;5051275;28;20503;-67
2023/05/26 02:36:27;;;;;;;0.45;0.35;;;6.60;99.90;;;;;;5044994;28;20131;-67
2023/05/26 02:38:53;;;;;;;0.30;0.30;;;6.60;99.90;;;;;;5050822;28;20052;-67
2023/05/26 02:41:19;;;;;;;0.30;0.30;;;6.60;99.90;;;;;;5051166;28;20056;-67
2023/05/26 02:43:44;;;;;;;0.40;0.40;;;6.50;99.90;;;;;;5051668;28;20128;-67
2023/05/26 02:46:11;;;;;;;0.32;0.32;;;6.50;99.90;;;;;;5053489;28;20041;-67
2023/05/26 02:48:37;;;;;;;0.50;0.50;;;6.50;99.90;;;;;;5048075;28;20080;-67
2023/05/26 02:51:02;;;;;;;0.40;0.40;;;6.50;99.90;;;;;;5044396;28;20080;-67
2023/05/26 02:53:28;;;;;;;0.40;0.40;;;6.50;99.90;;;;;;5039964;28;20060;-67
2023/05/26 02:55:54;;;;;;;0.60;0.60;;;6.40;99.90;;;;;;5050100;28;20497;-67
2023/05/26 02:58:20;;;;;;;0.38;0.38;;;6.40;99.90;;;;;;5052463;28;20066;-67
2023/05/26 03:00:46;;;;;;;0.73;0.55;;;6.40;99.90;;;;;;5049636;28;20091;-68
2023/05/26 03:03:11;;;;;;;0.38;0.38;;;6.40;99.90;;;;;;5048405;28;20559;-67
2023/05/26 03:05:37;;;;;;;0.30;0.30;;;6.30;99.90;;;;;;5045565;28;20040;-67
2023/05/26 03:08:03;;;;;;;0.40;0.40;;;6.30;99.90;;;;;;5054288;28;20123;-67
2023/05/26 03:10:30;;;;;;;0.30;0.30;;;6.30;99.90;;;;;;5046762;28;20045;-67
2023/05/26 03:12:55;;;;;;;0.30;0.30;;;6.30;99.90;;;;;;5053095;28;20692;-67
2023/05/26 03:15:22;;;;;;;0.40;0.40;;;6.30;99.90;;;;;;5052780;28;20120;-67
2023/05/26 03:17:47;;;;;;;0.30;0.30;;;6.30;99.90;;;;;;5053007;28;20534;-67
2023/05/26 03:20:13;;;;;;;0.40;0.40;;;6.30;99.90;;;;;;5056188;28;20037;-67
2023/05/26 03:22:40;;;;;;;0.38;0.38;;;6.30;99.90;;;;;;5056834;28;20037;-67
2023/05/26 03:25:06;;;;;;;0.40;0.40;;;6.20;99.90;;;;;;5046380;28;20060;-67
2023/05/26 03:27:31;;;;;;;0.35;0.35;;;6.20;99.90;;;;;;5055495;28;20048;-67
2023/05/26 03:29:57;;;;;;;0.30;0.30;;;6.20;99.90;;;;;;5050382;28;20124;-67
2023/05/26 03:32:23;;;;;;;2.92;0.88;;;6.20;99.90;;;;;;5055049;28;20073;-67
2023/05/26 03:34:48;;;;;;;0.60;0.60;;;6.20;99.90;;;;;;5053078;28;20405;-67
2023/05/26 03:37:15;;;;;;;0.35;0.35;;;6.20;99.90;;;;;;5055210;28;20040;-67
2023/05/26 03:39:41;;;;;;;0.65;0.65;;;6.20;99.90;;;;;;5048556;28;20049;-67
2023/05/26 03:42:07;;;;;;;0.77;0.47;;;6.20;99.90;;;;;;5054511;28;20055;-67
2023/05/26 03:44:32;;;;;;;0.30;0.30;;;6.20;99.90;;;;;;5048430;28;20134;-67
2023/05/26 03:46:58;;;;;;;0.40;0.40;;;6.20;99.90;;;;;;5053465;28;20044;-67
2023/05/26 03:49:24;;;;;;;0.50;0.50;;;6.20;99.90;;;;;;5056457;28;20565;-67
2023/05/26 03:51:50;;;;;;;0.40;0.40;;;6.30;99.90;;;;;;5052739;28;20164;-67
2023/05/26 03:54:15;;;;;;;0.90;0.90;;;6.30;99.90;;;;;;5054084;28;20135;-67
2023/05/26 03:56:41;;;;;;;0.40;0.40;;;6.30;99.90;;;;;;5056169;28;20128;-67
2023/05/26 03:59:07;;;;;;;0.25;0.25;;;6.30;99.90;;;;;;5052138;28;20128;-67
2023/05/26 04:01:33;;;;;;;0.80;0.80;;;6.40;99.90;;;;;;5053349;28;20138;-67
2023/05/26 04:03:58;;;;;;;0.52;0.52;;;6.50;99.90;;;;;;5053845;28;20766;-67
2023/05/26 04:06:24;;;;;;;0.60;0.60;;;6.60;99.90;;;;;;5059330;28;20052;-67
2023/05/26 04:08:50;;;;;;;0.30;0.30;;;6.60;99.90;;;;;;5050362;28;20768;-67
2023/05/26 04:11:17;;;;;;;0.63;0.63;;;6.80;99.90;;;;;;5054621;28;20056;-67
2023/05/26 04:13:42;;;;;;;0.30;0.30;;;7.00;99.90;;;;;;5055663;28;20053;-67
2023/05/26 04:16:08;;;;;;;0.40;0.40;;;7.30;99.90;;;;;;5052571;28;20045;-67
2023/05/26 04:18:36;;;;;;;0.80;0.80;;;7.60;99.90;;;;;;5051132;28;20044;-67
2023/05/26 04:21:02;;;;;;;0.30;0.30;;;7.90;99.90;;;;;;5052006;28;20490;-67
2023/05/26 04:23:28;;;;;;;1.38;1.05;;;7.90;99.90;;;;;;5056675;28;20053;-67
2023/05/26 04:25:55;;;;;;;1.08;0.90;;;8.00;99.90;;;;;;5057966;28;20051;-67
2023/05/26 04:28:21;;;;;;;0.40;0.40;;;7.90;99.90;;;;;;5054606;28;20055;-67
2023/05/26 04:30:47;;;;;;;0.32;0.32;;;7.80;99.90;;;;;;5048474;28;20823;-67
2023/05/26 04:33:15;;;;;;;0.38;0.38;;;7.70;99.90;;;;;;5046786;28;20076;-67
2023/05/26 04:35:44;;;;;;;0.40;0.40;;;7.70;99.90;;;;;;5055594;28;20044;-67
2023/05/26 04:38:12;;;;;;;0.60;0.60;;;7.70;99.90;;;;;;5052684;28;20424;-67
2023/05/26 04:40:39;;;;;;;0.98;0.90;;;7.70;99.90;;;;;;5057974;28;20117;-67
2023/05/26 04:43:04;;;;;;;0.40;0.40;;;7.80;99.90;;;;;;5055922;28;20045;-67
2023/05/26 04:45:30;;;;;;;0.45;0.45;;;7.90;99.90;;;;;;5055760;28;20048;-67
2023/05/26 04:47:57;;;;;;;0.70;0.70;;;8.00;99.90;;;;;;5053819;28;20156;-67
2023/05/26 04:50:25;;;;;;;0.50;0.50;;;8.10;99.90;;;;;;5051393;28;20128;-67
2023/05/26 04:52:50;;;;;;;0.30;0.30;;;8.20;99.90;;;;;;5052862;28;20143;-67
2023/05/26 04:55:16;;;;;;;0.30;0.30;;;8.10;99.90;;;;;;5051137;28;20072;-67
2023/05/26 04:57:43;;;;;;;0.68;0.63;;;8.10;99.90;;;;;;5054085;28;20128;-67
2023/05/26 05:00:10;;;;;;;0.50;0.50;;;8.10;99.90;;;;;;5051875;28;20053;-67
2023/05/26 05:02:36;;;;;;;0.80;0.80;;;8.20;99.90;;;;;;5056258;28;20567;-67
2023/05/26 05:05:03;;;;;;;0.30;0.30;;;8.20;99.90;;;;;;5051519;28;20045;-67
2023/05/26 05:07:28;;;;;;;0.40;0.40;;;8.30;99.90;;;;;;5046904;28;20049;-67
2023/05/26 05:09:54;;;;;;;0.30;0.30;;;8.30;99.90;;;;;;5033741;28;20497;-67
2023/05/26 05:12:20;;;;;;;0.30;0.30;;;8.40;99.90;;;;;;5057252;28;20057;-67
2023/05/26 05:14:45;;;;;;;0.50;0.50;;;8.50;99.90;;;;;;5049132;28;20106;-67
2023/05/26 05:17:11;;;;;;;0.80;0.80;;;8.50;99.90;;;;;;5054980;28;20541;-67
2023/05/26 05:19:37;;;;;;;0.60;0.60;;;8.60;99.90;;;;;;5049238;28;20033;-67
2023/05/26 05:22:03;;;;;;;0.70;0.70;;;8.70;99.90;;;;;;5047689;28;20053;-67
2023/05/26 05:24:29;;;;;;;0.57;0.57;;;8.70;99.90;;;;;;5046782;28;20056;-67
2023/05/26 05:26:55;;;;;;;0.47;0.47;;;8.80;99.90;;;;;;5052883;28;20580;-67
2023/05/26 05:29:20;;;;;;;0.85;0.85;;;8.90;99.90;;;;;;5055756;28;20073;-67
2023/05/26 05:31:47;;;;;;;0.47;0.47;;;8.90;99.90;;;;;;5043915;28;20048;-67
2023/05/26 05:34:13;;;;;;;0.35;0.35;;;9.00;99.90;;;;;;5053541;28;20460;-67
2023/05/26 05:36:38;;;;;;;0.45;0.45;;;9.20;99.90;;;;;;5047114;28;20041;-67
2023/05/26 05:39:04;;;;;;;0.82;0.82;;;9.30;99.90;;;;;;5047172;28;20037;-67
2023/05/26 05:41:31;;;;;;;1.10;1.10;;;9.50;99.90;;;;;;5047803;28;20040;-67
2023/05/26 05:43:56;;;;;;;1.25;1.25;;;9.70;99.90;;;;;;5047933;28;20442;-67
2023/05/26 05:46:24;;;;;;;0.88;0.85;;;9.80;99.90;;;;;;5047067;28;20132;-67
2023/05/26 05:48:49;;;;;;;0.40;0.40;;;9.80;99.90;;;;;;5049547;28;20049;-67
2023/05/26 05:51:15;;;;;;;4.18;1.73;;;9.90;99.90;;;;;;5047329;28;20044;-67
2023/05/26 05:53:41;;;;;;;1.45;1.35;;;10.00;99.90;;;;;;5045888;28;20065;-67
2023/05/26 05:56:06;;;;;;;6.15;1.23;;;10.10;99.90;;;;;;5051051;28;20036;-67
2023/05/26 05:58:32;;;;;;;0.98;0.98;;;10.10;99.90;;;;;;5051208;28;20041;-67
2023/05/26 06:00:58;;;;;;;0.70;0.70;;;10.20;99.90;;;;;;5057037;28;20048;-68
2023/05/26 06:03:25;;;;;;;0.55;0.55;;;10.20;99.90;;;;;;5047792;28;20051;-67
2023/05/26 06:05:50;;;;;;;1.38;1.15;;;10.30;99.90;;;;;;5046120;28;20171;-68
2023/05/26 06:08:16;;;;;;;0.50;0.50;;;10.30;99.90;;;;;;5052085;28;20549;-67
2023/05/26 06:10:43;;;;;;;0.55;0.55;;;10.40;99.90;;;;;;5046816;28;20037;-67
2023/05/26 06:13:09;;;;;;;1.00;1.00;;;10.50;99.90;;;;;;5054080;28;20116;-68
2023/05/26 06:15:34;;;;;;;0.95;0.95;;;10.70;99.90;;;;;;5048522;28;20183;-67
2023/05/26 06:18:01;;;;;;;0.80;0.80;;;10.70;99.90;;;;;;5054544;28;20832;-67
2023/05/26 06:20:27;;;;;;;15.00;3.35;;;10.70;99.90;;;;;;5048075;28;20044;-67
2023/05/26 06:22:53;;;;;;;1.35;1.30;;;10.70;99.90;;;;;;5048549;28;20638;-67
2023/05/26 06:25:18;;;;;;;1.95;1.40;;;10.70;99.90;;;;;;5055186;28;20072;-67
2023/05/26 06:27:44;;;;;;;7.32;1.52;;;10.80;99.90;;;;;;5050548;28;20512;-67
2023/05/26 06:30:10;;;;;;;0.90;0.90;;;10.80;99.90;;;;;;5048670;28;20041;-67
2023/05/26 06:32:36;;;;;;;0.57;0.50;;;10.80;99.90;;;;;;5049799;28;20041;-67
2023/05/26 06:35:03;;;;;;;0.70;0.70;;;10.80;99.90;;;;;;5052764;28;20051;-67
2023/05/26 06:37:29;;;;;;;4.68;2.15;;;10.80;99.90;;;;;;5045498;28;20068;-67
2023/05/26 06:39:56;;;;;;;3.80;2.05;;;10.70;99.90;;;;;;5048774;28;20612;-67
2023/05/26 06:42:23;;;;;;;2.13;1.85;;;10.80;99.90;;;;;;5048765;28;20147;-67
2023/05/26 06:44:49;;;;;;;1.45;1.35;;;10.90;99.90;;;;;;5053605;28;20060;-67
2023/05/26 06:47:15;;;;;;;2.97;1.55;;;11.00;99.90;;;;;;5052332;28;20041;-67
2023/05/26 06:49:42;;;;;;;2.28;1.63;;;11.20;99.90;;;;;;5055010;28;20049;-67
2023/05/26 06:52:07;;;;;;;3.10;0.90;;;11.20;99.90;;;;;;5053840;28;20045;-67
2023/05/26 06:54:33;;;;;;;1.10;1.05;;;11.30;99.90;;;;;;5051860;28;20059;-67
2023/05/26 06:57:00;;;;;;;0.47;0.47;;;11.60;99.90;;;;;;5055885;28;20056;-67
2023/05/26 06:59:26;;;;;;;11.82;2.65;;;11.90;99.90;;;;;;5051966;28;20387;-67
2023/05/26 07:01:52;;;;;;;0.98;0.98;;;11.90;99.90;;;;;;5048808;28;20040;-67
2023/05/26 07:04:17;;;;;;;0.65;0.65;;;12.10;99.90;;;;;;5057926;28;20048;-67
2023/05/26 07:06:43;;;;;;;1.27;1.05;;;12.30;99.90;;;;;;5059444;28;20037;-67
2023/05/26 07:09:10;;;;;;;1.30;1.20;;;12.50;99.90;;;;;;5051020;28;20119;-67
2023/05/26 07:11:36;;;;;;;1.30;1.30;;;12.50;99.90;;;;;;5049226;28;20049;-67
2023/05/26 07:14:01;;;;;;;2.10;1.90;;;12.50;99.90;;;;;;5058144;28;20399;-67
2023/05/26 07:16:27;;;;;;;2.03;1.90;;;12.60;99.90;;;;;;5052392;28;20033;-67
2023/05/26 07:18:52;;;;;;;1.40;1.15;;;12.70;99.90;;;;;;5052563;28;20057;-67
2023/05/26 07:21:21;;;;;;;8.70;1.95;;;12.80;99.90;;;;;;5054495;28;20575;-67
2023/05/26 07:23:47;;;;;;;0.57;0.57;;;12.90;99.90;;;;;;5051959;28;20048;-67
2023/05/26 07:26:13;;;;;;;10.20;1.85;;;12.80;99.90;;;;;;5052211;28;20457;-67
2023/05/26 07:28:40;;;;;;;1.73;1.63;;;12.80;99.90;;;;;;5050640;28;20037;-67
2023/05/26 07:31:06;;;;;;;1.75;1.65;;;12.60;99.90;;;;;;5047786;28;20056;-67
2023/05/26 07:33:32;;;;;;;0.85;0.85;;;12.50;99.90;;;;;;5055609;28;20033;-67
2023/05/26 07:35:57;;;;;;;1.23;1.13;;;12.40;99.90;;;;;;5055315;28;20075;-67
2023/05/26 07:38:23;;;;;;;1.65;1.55;;;12.40;99.90;;;;;;5059595;28;20036;-67
2023/05/26 07:40:49;;;;;;;1.00;1.00;;;12.50;99.90;;;;;;5055225;28;20037;-67
2023/05/26 07:43:15;;;;;;;1.95;1.02;;;12.50;99.90;;;;;;5050746;28;20040;-67
2023/05/26 07:45:40;;;;;;;2.53;2.30;;;12.50;99.90;;;;;;5054441;28;20413;-67
2023/05/26 07:48:06;;;;;;;1.17;1.17;;;12.40;99.90;;;;;;5056202;28;20033;-67
2023/05/26 07:50:32;;;;;;;1.20;0.93;;;12.60;99.90;;;;;;5052503;28;20041;-67
2023/05/26 07:52:57;;;;;;;1.33;1.23;;;12.80;99.90;;;;;;5058550;28;20051;-68
2023/05/26 07:55:23;;;;;;;0.80;0.80;;;12.90;99.90;;;;;;5056557;28;20059;-68
2023/05/26 07:57:49;;;;;;;1.45;0.70;;;13.00;99.90;;;;;;5052486;28;20048;-67
2023/05/26 08:00:15;;;;;;;2.88;2.67;;;13.00;99.90;;;;;;5055654;28;20449;-67
2023/05/26 08:02:41;;;;;;;1.30;1.27;;;13.20;99.90;;;;;;5056979;28;20056;-67
2023/05/26 08:05:07;;;;;;;0.55;0.55;;;13.30;99.60;;;;;;5055047;28;20124;-67
2023/05/26 08:07:33;;;;;;;1.75;1.60;;;13.30;98.60;;;;;;5054511;28;20088;-67
2023/05/26 08:09:59;;;;;;;4.50;1.80;;;13.20;97.30;;;;;;5054303;28;20075;-67
2023/05/26 08:12:24;;;;;;;1.70;1.58;;;13.40;97.50;;;;;;5052440;28;20091;-67
2023/05/26 08:14:50;;;;;;;1.38;1.27;;;13.60;99.90;;;;;;5046884;28;21096;-67
2023/05/26 08:17:16;;;;;;;3.88;2.10;;;13.90;97.80;;;;;;5048519;28;20102;-68
2023/05/26 08:19:42;;;;;;;1.60;1.50;;;14.10;95.90;;;;;;5050254;28;20041;-68
2023/05/26 08:22:08;;;;;;;17.92;2.35;;;14.30;95.70;;;;;;5058029;28;20036;-68
2023/05/26 08:24:33;;;;;;;4.13;0.98;;;14.30;93.80;;;;;;5061166;28;20052;-68
2023/05/26 08:26:59;;;;;;;4.40;2.70;;;14.40;92.50;;;;;;5059213;28;20047;-68
2023/05/26 08:29:25;;;;;;;2.72;2.13;;;14.50;90.40;;;;;;5047983;28;20047;-67
2023/05/26 08:31:50;;;;;;;0.70;0.70;;;14.50;90.10;;;;;;5051645;28;20044;-67
2023/05/26 08:34:17;;;;;;;3.03;1.27;;;14.70;87.90;;;;;;5054932;28;20083;-68
2023/05/26 08:36:43;;;;;;;4.00;2.00;;;14.90;86.70;;;;;;5044203;28;20395;-68
2023/05/26 08:39:09;;;;;;;4.40;2.10;;;14.90;83.50;;;;;;5057954;28;20040;-67
2023/05/26 08:41:47;;;;;;;1.80;1.70;;;14.90;86.60;;;;;;5051637;28;20108;-68
2023/05/26 08:44:15;;;;;;;1.50;0.95;;;15.00;87.40;;;;;;5055408;28;20800;-68
2023/05/26 08:46:44;;;;;;;1.10;1.10;;;15.10;81.10;;;;;;5048884;28;20108;-68
2023/05/26 08:49:14;;;;;;;2.17;2.05;;;15.20;83.60;;;;;;5048021;28;20109;-68
2023/05/26 08:51:51;;;;;;;0.63;0.63;;;15.30;84.00;;;;;;5050165;28;20049;-68
2023/05/26 08:54:16;;;;;;;1.70;1.58;;;15.20;84.60;;;;;;5049839;28;20101;-68
2023/05/26 08:56:45;;;;;;;0.40;0.40;;;15.20;79.10;;;;;;5056789;28;20040;-68
2023/05/26 08:59:13;;;;;;;9.43;2.28;;;15.40;81.20;;;;;;5056884;28;20045;-69
2023/05/26 09:01:39;;;;;;;0.95;0.95;;;15.60;81.00;;;;;;5045237;28;20045;-69
2023/05/26 09:04:04;;;;;;;1.55;1.45;;;15.70;79.60;;;;;;5048347;28;20406;-69
2023/05/26 09:06:31;;;;;;;0.60;0.60;;;16.00;83.00;;;;;;5044764;28;20573;-68
2023/05/26 09:08:56;;;;;;;2.45;2.25;;;16.00;74.70;;;;;;5044607;28;20403;-69
2023/05/26 09:11:23;;;;;;;1.27;1.27;;;15.80;72.10;;;;;;5045445;28;20060;-69
2023/05/26 09:13:55;;;;;;;3.38;2.13;;;15.90;74.40;;;;;;5048957;28;20056;-68
2023/05/26 09:16:25;;;;;;;0.95;0.95;;;15.80;73.60;;;;;;5051299;28;20132;-69
2023/05/26 09:18:58;;;;;;;1.77;1.00;;;15.70;72.60;;;;;;5043574;28;20622;-69
2023/05/26 09:21:28;;;;;;;2.60;1.52;;;15.80;72.30;;;;;;5051214;28;20535;-69
2023/05/26 09:23:59;;;;;;;2.75;2.28;;;16.00;72.40;;;;;;5055864;28;20049;-69
2023/05/26 09:26:26;;;;;;;0.63;0.63;;;16.00;72.50;;;;;;5056607;28;20055;-69
2023/05/26 09:28:52;;;;;;;1.65;1.55;;;16.20;71.50;;;;;;5052286;28;20045;-68
2023/05/26 09:31:18;;;;;;;0.95;0.90;;;16.20;69.80;;;;;;5048829;28;20057;-69
2023/05/26 09:33:48;;;;;;;1.13;1.02;;;16.30;71.30;;;;;;5047399;28;20103;-69
2023/05/26 09:36:17;;;;;;;2.95;1.02;;;16.20;69.60;;;;;;5038623;28;20064;-68
2023/05/26 09:38:43;;;;;;;3.13;1.60;;;16.30;70.60;;;;;;5043167;28;20180;-69
2023/05/26 09:41:09;;;;;;;1.27;1.17;;;16.20;71.30;;;;;;5044750;28;20041;-69
2023/05/26 09:43:36;;;;;;;1.65;1.55;;;16.20;71.20;;;;;;5046986;28;20460;-69
2023/05/26 09:46:07;;;;;;;0.60;0.60;;;16.40;71.30;;;;;;5046487;28;20044;-69
2023/05/26 09:48:35;;;;;;;1.25;1.20;;;16.70;69.00;;;;;;5045981;28;20041;-69
2023/05/26 09:51:02;;;;;;;2.85;1.27;;;16.70;67.20;;;;;;5055847;28;20056;-69
2023/05/26 09:53:27;;;;;;;1.13;1.05;;;16.70;68.10;;;;;;5048780;28;20057;-69
2023/05/26 09:55:56;;;;;;;1.70;1.60;;;16.70;66.70;;;;;;5048643;28;20052;-69
2023/05/26 09:58:24;;;;;;;0.90;0.70;;;16.70;67.90;;;;;;5043594;28;23328;-69
2023/05/26 10:00:53;;;;;;;1.42;1.33;;;17.10;72.00;;;;;;5052379;28;20056;-69
2023/05/26 10:03:20;;;;;;;6.32;1.75;;;17.30;65.20;;;;;;5051297;28;20147;-69
2023/05/26 10:05:48;;;;;;;1.73;1.63;;;17.20;65.40;;;;;;5049403;28;20049;-69
2023/05/26 10:08:19;;;;;;;0.85;0.85;;;17.20;64.50;;;;;;5052396;28;20179;-69
2023/05/26 10:10:47;;;;;;;4.15;1.05;;;17.20;63.90;;;;;;5045533;28;20049;-69
2023/05/26 10:13:15;;;;;;;3.95;2.15;;;17.10;64.70;;;;;;5056966;28;20123;-69
2023/05/26 10:15:42;;;;;;;;;;;17.00;65.60;;;;;;5051354;28;20055;-69
2023/05/26 10:18:07;;;;;;;1.40;1.40;;;17.20;65.70;;;;;;5054499;28;20003;-69
2023/05/26 10:20:34;;;;;;;1.75;1.63;;;17.10;63.00;;;;;;5038570;28;20214;-69
2023/05/26 10:22:59;;;;;;;1.67;1.20;;;17.10;65.90;;;;;;5048972;28;20037;-69
2023/05/26 10:25:35;;;;;;;7.63;1.02;;;17.20;64.70;;;;;;5056116;28;20059;-69
2023/05/26 10:28:19;;;;;;;2.50;2.15;;;17.20;65.80;;;;;;5048429;28;20162;-69
2023/05/26 10:30:46;;;;;;;0.50;0.50;;;17.00;65.60;;;;;;5049356;28;20060;-69
2023/05/26 10:33:14;;;;;;;1.27;1.25;;;16.90;66.40;;;;;;5047237;28;20697;-66
2023/05/26 10:35:54;;;;;;;0.40;0.40;;;17.00;67.60;;;;;;5049540;28;20044;-68
2023/05/26 10:38:25;;;;;;;1.08;1.00;;;17.20;66.20;;;;;;5044371;28;20036;-67
2023/05/26 10:40:51;;;;;;;1.15;1.05;;;17.30;65.70;;;;;;5050930;28;20075;-67
2023/05/26 10:43:21;;;;;;;2.25;1.00;;;17.60;70.00;;;;;;5050828;28;20478;-67
2023/05/26 10:45:51;;;;;;;0.82;0.82;;;18.10;66.70;;;;;;5055466;28;20107;-67
2023/05/26 10:48:17;;;;;;;0.63;0.63;;;18.10;65.90;;;;;;5049575;28;20052;-67
2023/05/26 10:50:55;;;;;;;1.83;1.58;;;17.90;62.80;;;;;;5056389;28;20120;-68
2023/05/26 10:53:22;;;;;;;1.17;1.10;;;17.80;65.80;;;;;;5043854;28;20063;-67
2023/05/26 10:56:08;;;;;;;2.30;2.20;;;17.90;64.40;;;;;;5049724;28;20080;-68
2023/05/26 10:58:40;;;;;;;0.82;0.82;;;17.90;63.60;;;;;;5052067;28;20048;-68
2023/05/26 11:01:16;;;;;;;2.33;1.75;;;17.70;62.40;;;;;;5050817;28;20415;-68
2023/05/26 11:03:46;;;;;;;3.08;1.90;;;17.90;63.40;;;;;;5048522;28;20095;-68
2023/05/26 11:06:14;;;;;;;1.65;1.50;;;17.80;63.10;;;;;;5059659;28;20044;-67
2023/05/26 11:08:40;;;;;;;;;;;17.90;63.00;;;;;;5048064;28;20044;-68
2023/05/26 11:11:08;;;;;;;0.95;0.95;;;17.80;63.80;;;;;;5047375;28;19921;-67
2023/05/26 11:13:49;;;;;;;1.20;1.20;;;17.80;63.20;;;;;;5056521;28;20103;-68
2023/05/26 11:16:24;;;;;;;3.40;2.08;;;17.80;64.70;;;;;;5055710;28;20132;-68
2023/05/26 11:18:52;;;;;;;1.17;1.17;;;17.70;63.90;;;;;;5048486;28;20584;-68
2023/05/26 11:21:19;;;;;;;;;;;17.70;65.00;;;;;;5056484;28;20032;-69
2023/05/26 11:23:46;;;;;;;0.65;0.65;;;17.70;64.20;;;;;;5047430;28;19920;-69
2023/05/26 11:26:13;;;;;;;1.10;0.75;;;17.70;65.00;;;;;;5053367;28;20051;-69
2023/05/26 11:28:44;;;;;;;2.42;1.38;;;17.90;66.90;;;;;;5052606;28;20749;-70
2023/05/26 11:31:14;;;;;;;2.70;2.50;;;18.20;63.80;;;;;;5055672;28;20107;-69
2023/05/26 11:33:42;;;;;;;1.95;1.17;;;18.30;63.40;;;;;;5063272;28;20718;-69
2023/05/26 11:36:15;;;;;;;3.25;1.10;;;18.20;62.40;;;;;;5051832;28;20036;-69
2023/05/26 11:38:43;;;;;;;1.98;1.40;;;17.90;62.70;;;;;;5054138;28;20037;-69
2023/05/26 11:41:10;;;;;;;1.52;1.42;;;17.90;63.00;;;;;;5050377;28;20033;-69
2023/05/26 11:43:37;;;;;;;1.17;1.17;;;17.80;63.80;;;;;;5055566;28;20053;-69
2023/05/26 11:46:05;;;;;;;3.20;1.60;;;17.80;64.80;;;;;;5050939;28;20132;-68
2023/05/26 11:48:39;;;;;;;10.98;1.50;;;18.10;65.10;;;;;;5056368;28;20032;-69
2023/05/26 11:51:15;;;;;;;0.55;0.55;;;18.20;66.80;;;;;;5051350;28;20075;-69
2023/05/26 11:53:42;;;;;;;1.55;1.15;;;18.50;65.10;;;;;;5057851;28;20152;-69
2023/05/26 11:56:10;;;;;;;1.95;1.85;;;18.60;64.00;;;;;;5052820;28;20743;-69
2023/05/26 11:58:48;;;;;;;1.02;1.00;;;18.80;63.70;;;;;;5058845;28;20127;-69
2023/05/26 12:01:15;;;;;;;4.68;1.48;;;18.50;61.80;;;;;;5048739;28;20044;-69
2023/05/26 12:03:44;;;;;;;0.90;0.90;;;18.60;64.70;;;;;;5053620;28;20453;-69
2023/05/26 12:06:15;;;;;;;0.80;0.80;;;18.70;64.30;;;;;;5052175;28;20842;-70
2023/05/26 12:08:53;;;;;;;0.82;0.82;;;18.40;61.50;;;;;;5049711;28;20574;-70
2023/05/26 12:11:33;;;;;;;1.02;1.02;;;18.20;65.20;;;;;;5050480;28;20581;-69
2023/05/26 12:14:02;;;;;;;0.57;0.57;;;18.30;65.90;;;;;;5050455;28;20037;-69
2023/05/26 12:16:32;;;;;;;2.22;1.77;;;18.50;64.80;;;;;;5050480;28;20077;-69
2023/05/26 12:19:00;;;;;;;1.08;1.02;;;18.70;65.40;;;;;;5052154;28;20064;-69
2023/05/26 12:21:27;;;;;;;1.63;1.33;;;19.10;67.40;;;;;;5053819;28;20435;-69
2023/05/26 12:23:55;;;;;;;0.80;0.80;;;19.30;63.30;;;;;;5061478;28;20083;-69
2023/05/26 12:26:27;;;;;;;;;;;19.30;60.70;;;;;;5053616;28;20047;-69
2023/05/26 12:29:06;;;;;;;3.03;1.45;;;19.50;62.90;;;;;;5055058;28;19924;-69
2023/05/26 12:31:38;;;;;;;0.93;0.93;;;19.80;64.70;;;;;;5050396;28;20145;-69
2023/05/26 12:34:04;;;;;;;1.00;1.00;;;19.50;61.60;;;;;;5060195;28;20052;-69
2023/05/26 12:36:29;;;;;;;4.75;1.60;;;19.40;64.80;;;;;;5050635;28;20401;-69
2023/05/26 12:38:55;;;;;;;2.08;1.15;;;19.60;64.50;;;;;;5056788;28;20116;-69
2023/05/26 12:41:21;;;;;;;1.45;0.75;;;19.70;63.50;;;;;;5054653;28;20459;-69
2023/05/26 12:43:46;;;;;;;0.85;0.68;;;19.50;62.40;;;;;;5052994;28;20036;-69
2023/05/26 12:46:12;;;;;;;2.13;1.95;;;19.40;64.50;;;;;;5054536;28;20064;-69
2023/05/26 12:48:38;;;;;;;9.18;1.52;;;19.00;62.90;;;;;;5054981;28;20087;-69
2023/05/26 12:51:06;;;;;;;0.60;0.60;;;19.00;62.00;;;;;;5048908;28;20087;-69
2023/05/26 12:53:32;;;;;;;2.90;2.35;;;19.20;65.40;;;;;;5053458;28;20063;-69